Terminal Aerodrome Forecast
Issued by NWS

Home | Current Version | Previous Version | Text Only | Print | Product List | Glossary On
Versions: 1 2 3 4 5 6 7 8 9 10 11 12 13 14 15 16 17 18 19 20 21 22 23 24 25 26 27 28 29 30 31 32 33 34 35 36 37
000
FTUS43 KGLD 031724
TAFMCK
TAF
KMCK 031724Z 0318/0418 27008KT P6SM SCT250
     FM040000 02009KT P6SM VCTS BKN090CB
     FM040600 02013G20KT P6SM -SHRA VCTS BKN070CB
     FM040900 03012G18KT P6SM VCSH SCT070 BKN100
     FM041200 04012KT P6SM SCT007 BKN020=

USA.gov is the U.S. government's official web portal to all federal, state and local government web resources and services.